createdAt,value
2022-08-28T00:01:19.623Z,16.10
2022-08-28T00:06:27.302Z,16.13
2022-08-28T00:11:32.376Z,15.70
2022-08-28T00:16:36.454Z,15.43
2022-08-28T00:21:43.920Z,15.60
2022-08-28T00:27:07.467Z,15.05
2022-08-28T00:32:09.834Z,14.93
2022-08-28T00:37:12.220Z,15.02
2022-08-28T00:42:19.817Z,15.30
2022-08-28T00:47:28.355Z,14.70
2022-08-28T00:52:32.903Z,14.88
2022-08-28T00:57:49.139Z,14.80
2022-08-28T01:13:05.027Z,14.43
2022-08-28T01:18:11.311Z,15.07
2022-08-28T01:23:28.641Z,15.95
2022-08-28T01:28:31.171Z,16.40
2022-08-28T01:33:34.023Z,16.10
2022-08-28T01:38:39.549Z,17.03
2022-08-28T01:43:46.976Z,16.92
2022-08-28T01:48:51.835Z,19.17
2022-08-28T01:53:59.096Z,19.20
2022-08-28T01:59:06.742Z,18.95
2022-08-28T02:04:14.365Z,19.00
2022-08-28T02:09:22.552Z,18.75
2022-08-28T02:14:25.756Z,19.33
2022-08-28T02:19:32.974Z,19.67
2022-08-28T02:24:38.127Z,21.38
2022-08-28T02:29:40.875Z,22.15
2022-08-28T02:34:48.070Z,22.10
2022-08-28T02:39:58.623Z,22.90
2022-08-28T02:45:04.473Z,22.52
2022-08-28T02:50:10.349Z,23.77
2022-08-28T02:55:22.813Z,22.58
2022-08-28T03:00:26.188Z,22.30
2022-08-28T03:05:33.072Z,22.30
2022-08-28T03:10:37.569Z,21.45
2022-08-28T03:15:43.702Z,21.30
2022-08-28T03:20:50.641Z,21.67
2022-08-28T03:25:59.924Z,23.33
2022-08-28T03:31:02.678Z,21.80
2022-08-28T03:36:08.757Z,20.80
2022-08-28T03:41:12.138Z,20.08
2022-08-28T03:46:22.812Z,20.42
2022-08-28T03:51:31.107Z,20.65
2022-08-28T03:56:43.554Z,20.98
2022-08-28T04:01:45.860Z,20.67
2022-08-28T04:06:48.292Z,19.80
2022-08-28T04:11:57.945Z,19.67
2022-08-28T04:17:02.717Z,19.43
2022-08-28T04:22:05.319Z,19.80
2022-08-28T04:27:07.816Z,20.67
2022-08-28T04:32:14.743Z,19.45
2022-08-28T04:37:17.735Z,18.15
2022-08-28T04:42:20.078Z,19.13
2022-08-28T04:47:24.803Z,18.67
2022-08-28T04:52:29.486Z,18.17
2022-08-28T04:57:36.375Z,16.23
2022-08-28T05:02:39.021Z,16.70
2022-08-28T05:07:45.030Z,16.33
2022-08-28T05:12:48.279Z,16.67
2022-08-28T05:17:50.593Z,16.50
2022-08-28T05:22:52.868Z,16.23
2022-08-28T05:27:55.343Z,16.75
2022-08-28T05:33:00.193Z,15.70
2022-08-28T05:38:02.496Z,15.80
2022-08-28T05:43:07.247Z,15.40
2022-08-28T05:48:09.644Z,14.82
2022-08-28T05:53:11.975Z,18.10
2022-08-28T05:58:31.487Z,14.53
2022-08-28T06:03:34.331Z,14.80
2022-08-28T06:08:39.320Z,13.77
2022-08-28T06:14:02.487Z,13.70
2022-08-28T06:19:09.345Z,14.10
2022-08-28T06:24:12.262Z,13.23
2022-08-28T06:29:21.016Z,12.55
2022-08-28T06:34:24.891Z,12.82
2022-08-28T06:39:27.277Z,12.40
2022-08-28T06:44:32.499Z,11.88
2022-08-28T06:49:39.525Z,12.25
2022-08-28T06:54:54.464Z,12.25
2022-08-28T07:00:03.725Z,12.40
2022-08-28T07:05:08.841Z,13.05
2022-08-28T07:10:13.255Z,12.80
2022-08-28T07:15:15.990Z,12.30
2022-08-28T07:20:20.626Z,12.60
2022-08-28T07:25:32.827Z,13.20
2022-08-28T07:30:37.475Z,12.67
2022-08-28T07:35:45.320Z,12.95
2022-08-28T07:40:49.883Z,13.37
2022-08-28T07:46:02.193Z,13.60
2022-08-28T07:51:08.434Z,13.40
2022-08-28T07:56:11.499Z,14.00
2022-08-28T08:01:20.109Z,12.88
2022-08-28T08:06:24.812Z,13.20
2022-08-28T08:11:32.843Z,13.90
2022-08-28T08:16:40.084Z,14.10
2022-08-28T08:21:54.894Z,11.95
2022-08-28T08:27:04.251Z,12.07
2022-08-28T08:32:11.496Z,12.20
2022-08-28T08:37:19.092Z,11.90
2022-08-28T08:42:23.323Z,13.18
2022-08-28T08:47:40.985Z,13.40
2022-08-28T08:52:51.691Z,12.75
2022-08-28T08:58:00.884Z,12.57
2022-08-28T09:03:06.052Z,12.27
2022-08-28T09:08:15.379Z,12.68
2022-08-28T09:13:24.125Z,13.25
2022-08-28T09:18:34.419Z,12.52
2022-08-28T09:23:39.014Z,13.07
2022-08-28T09:28:44.771Z,12.45
2022-08-28T09:33:51.397Z,12.65
2022-08-28T09:39:12.476Z,13.68
2022-08-28T09:44:17.330Z,14.38
2022-08-28T09:49:23.880Z,13.00
2022-08-28T09:54:38.475Z,12.98
2022-08-28T09:59:42.317Z,13.10
2022-08-28T10:04:44.800Z,12.75
2022-08-28T10:09:50.168Z,11.63
2022-08-28T10:14:55.778Z,12.30
2022-08-28T10:20:13.586Z,12.98
2022-08-28T10:25:23.804Z,13.60
2022-08-28T10:30:31.151Z,14.05
2022-08-28T10:35:48.959Z,14.55
2022-08-28T10:40:56.669Z,15.60
2022-08-28T10:46:03.495Z,15.45
2022-08-28T10:51:18.043Z,13.90
2022-08-28T10:56:26.057Z,15.25
2022-08-28T11:01:30.804Z,14.02
2022-08-28T11:06:36.186Z,14.73
2022-08-28T11:11:40.746Z,14.52
2022-08-28T11:16:45.605Z,13.25
2022-08-28T11:22:03.796Z,14.80
2022-08-28T11:27:25.640Z,13.85
2022-08-28T11:32:30.899Z,13.80
2022-08-28T11:37:52.968Z,13.75
2022-08-28T11:43:17.025Z,13.80
2022-08-28T11:48:19.443Z,13.45
2022-08-28T11:53:33.205Z,12.75
2022-08-28T13:09:52.533Z,16.27
2022-08-28T13:14:57.590Z,14.23
2022-08-28T13:20:05.421Z,13.52
2022-08-28T13:25:19.934Z,13.65
2022-08-28T13:30:29.964Z,12.55
2022-08-28T13:35:36.493Z,12.57
2022-08-28T13:40:58.556Z,10.40
2022-08-28T13:46:03.984Z,8.05
2022-08-28T13:51:10.739Z,8.50
2022-08-28T13:56:13.951Z,8.00
2022-08-28T14:01:22.706Z,7.40
2022-08-28T14:06:37.930Z,6.68
2022-08-28T14:11:40.570Z,7.13
2022-08-28T14:16:45.048Z,7.35
2022-08-28T14:21:47.701Z,6.53
2022-08-28T14:26:52.568Z,5.90
2022-08-28T14:31:58.791Z,5.85
2022-08-28T14:37:01.869Z,6.22
2022-08-28T14:42:06.538Z,5.60
2022-08-28T14:47:15.558Z,5.32
2022-08-28T14:52:20.586Z,5.55
2022-08-28T14:57:23.081Z,5.25
2022-08-28T15:02:30.046Z,4.97
2022-08-28T15:07:39.659Z,4.53
2022-08-28T15:12:44.376Z,4.55
2022-08-28T15:17:46.759Z,4.68
2022-08-28T15:22:51.553Z,4.85
2022-08-28T15:27:58.936Z,4.50
2022-08-28T15:33:03.618Z,4.18
2022-08-28T15:38:06.287Z,3.85
2022-08-28T15:43:13.515Z,3.58
2022-08-28T15:48:16.094Z,4.00
2022-08-28T15:53:20.712Z,3.80
2022-08-28T15:58:23.115Z,3.53
2022-08-28T16:03:28.055Z,3.65
2022-08-28T16:08:32.817Z,3.60
2022-08-28T16:13:35.571Z,3.55
2022-08-28T16:18:37.957Z,3.60
2022-08-28T16:23:43.118Z,3.72
2022-08-28T16:28:45.536Z,4.20
2022-08-28T16:33:51.324Z,4.03
2022-08-28T16:39:03.478Z,3.95
2022-08-28T16:44:13.400Z,4.13
2022-08-28T16:49:15.831Z,4.43
2022-08-28T16:54:18.636Z,4.25
2022-08-28T16:59:23.246Z,4.30
2022-08-28T17:04:28.650Z,4.43
2022-08-28T17:09:33.441Z,5.22
2022-08-28T17:14:36.484Z,4.70
2022-08-28T17:19:45.943Z,5.43
2022-08-28T17:24:53.634Z,5.00
2022-08-28T17:29:56.879Z,4.78
2022-08-28T17:34:59.488Z,4.60
2022-08-28T17:40:05.512Z,4.30
2022-08-28T17:45:10.321Z,5.30
2022-08-28T17:50:12.644Z,4.70
2022-08-28T17:55:15.020Z,4.80
2022-08-28T18:00:19.760Z,5.30
2022-08-28T18:25:50.766Z,4.95
2022-08-28T18:30:54.255Z,5.27
2022-08-28T18:36:15.516Z,5.03
2022-08-28T18:41:20.137Z,4.90
2022-08-28T18:46:22.541Z,5.68
2022-08-28T18:51:32.709Z,5.90
2022-08-28T19:01:57.795Z,5.37
2022-08-28T19:07:00.651Z,5.30
2022-08-28T19:12:03.380Z,5.00
2022-08-28T19:17:05.868Z,5.23
2022-08-28T19:22:10.631Z,5.00
2022-08-28T19:27:15.536Z,5.07
2022-08-28T19:32:17.972Z,4.67
2022-08-28T19:37:21.794Z,5.00
2022-08-28T19:42:24.219Z,4.90
2022-08-28T19:47:28.760Z,4.97
2022-08-28T19:52:41.911Z,5.40
2022-08-28T19:57:45.701Z,4.43
2022-08-28T20:02:52.437Z,5.00
2022-08-28T20:07:55.304Z,5.07
2022-08-28T20:12:57.745Z,5.17
2022-08-28T20:18:02.337Z,5.53
2022-08-28T20:23:06.057Z,5.70
2022-08-28T20:28:14.536Z,5.90
2022-08-28T20:33:19.457Z,5.60
2022-08-28T20:38:25.146Z,5.93
2022-08-28T20:43:29.797Z,6.33
2022-08-28T20:48:37.382Z,6.07
2022-08-28T20:53:45.569Z,6.17
2022-08-28T20:58:50.485Z,6.30
2022-08-28T21:03:55.099Z,6.43
2022-08-28T21:08:58.032Z,6.63
2022-08-28T21:14:00.468Z,6.80
2022-08-28T21:19:16.446Z,6.57
2022-08-28T21:24:19.299Z,6.47
2022-08-28T21:29:23.972Z,6.93
2022-08-28T21:34:26.312Z,6.33
2022-08-28T21:39:28.965Z,6.87
2022-08-28T21:44:31.365Z,6.70
2022-08-28T21:49:35.308Z,6.83
2022-08-28T21:54:43.729Z,6.53
2022-08-28T21:59:46.025Z,6.23
2022-08-28T22:04:49.153Z,6.73
2022-08-28T22:09:51.965Z,6.20
2022-08-28T22:14:58.823Z,6.20
2022-08-28T22:20:04.253Z,5.93
2022-08-28T22:25:10.057Z,5.87
2022-08-28T22:30:18.173Z,5.37
2022-08-28T22:35:29.783Z,5.83
2022-08-28T22:40:41.280Z,5.20
2022-08-28T22:45:46.491Z,5.30
2022-08-28T22:50:51.328Z,5.47
2022-08-28T22:55:59.000Z,5.93
2022-08-28T23:01:07.952Z,5.20
2022-08-28T23:06:12.586Z,5.50
2022-08-28T23:11:15.238Z,4.85
2022-08-28T23:16:24.125Z,5.15
2022-08-28T23:21:28.485Z,5.13
2022-08-28T23:26:30.913Z,5.33
2022-08-28T23:31:35.739Z,5.40
2022-08-28T23:36:39.413Z,5.43
2022-08-28T23:41:45.537Z,5.30
2022-08-28T23:46:51.859Z,5.57
2022-08-28T23:51:56.480Z,5.27
2022-08-28T23:57:03.517Z,4.85
